createdAt,value
2018-01-24T00:00:41.641Z,5.60
2018-01-24T00:03:14.034Z,5.61
2018-01-24T00:05:41.574Z,5.61
2018-01-24T00:08:09.124Z,5.61
2018-01-24T00:10:40.327Z,5.59
2018-01-24T00:13:08.142Z,5.55
2018-01-24T00:15:36.423Z,5.47
2018-01-24T00:18:03.957Z,5.41
2018-01-24T00:20:33.280Z,5.34
2018-01-24T00:23:00.818Z,5.27
2018-01-24T00:25:28.415Z,5.23
2018-01-24T00:27:56.367Z,5.14
2018-01-24T00:30:25.665Z,5.10
2018-01-24T00:32:53.534Z,5.05
2018-01-24T00:35:21.087Z,5.05
2018-01-24T00:37:48.633Z,5.03
2018-01-24T00:40:16.208Z,5.01
2018-01-24T00:42:43.722Z,5.00
2018-01-24T00:45:11.301Z,4.99
2018-01-24T00:47:38.846Z,4.98
2018-01-24T00:50:06.375Z,5.00
2018-01-24T00:52:33.918Z,4.97
2018-01-24T00:55:01.463Z,4.99
2018-01-24T00:57:29.042Z,4.97
2018-01-24T00:59:56.586Z,4.98
2018-01-24T01:02:24.126Z,5.00
2018-01-24T01:04:51.706Z,4.99
2018-01-24T01:07:20.202Z,5.00
2018-01-24T01:09:51.759Z,5.04
2018-01-24T01:12:20.118Z,5.04
2018-01-24T01:14:47.677Z,5.04
2018-01-24T01:17:15.226Z,5.03
2018-01-24T01:19:47.453Z,5.06
2018-01-24T01:22:15.041Z,5.07
2018-01-24T01:24:42.637Z,5.09
2018-01-24T01:29:44.091Z,5.09
2018-01-24T01:32:11.626Z,5.08
2018-01-24T01:34:39.194Z,5.09
2018-01-24T01:37:06.772Z,5.08
2018-01-24T01:39:34.322Z,5.06
2018-01-24T01:42:02.028Z,5.06
2018-01-24T01:44:29.584Z,5.08
2018-01-24T01:46:57.131Z,5.09
2018-01-24T01:49:24.681Z,5.10
2018-01-24T01:51:52.225Z,5.13
2018-01-24T01:54:19.779Z,5.12
2018-01-24T01:56:48.165Z,5.14
2018-01-24T01:59:17.046Z,5.15
2018-01-24T02:01:45.052Z,5.15
2018-01-24T02:04:12.797Z,5.16
2018-01-24T02:06:41.294Z,5.18
2018-01-24T02:09:09.200Z,5.20
2018-01-24T02:11:39.043Z,5.21
2018-01-24T02:14:06.573Z,5.25
2018-01-24T02:16:35.819Z,5.26
2018-01-24T02:19:03.374Z,5.26
2018-01-24T02:21:31.128Z,5.27
2018-01-24T02:23:58.650Z,5.26
2018-01-24T02:26:26.454Z,5.26
2018-01-24T02:31:25.650Z,5.29
2018-01-24T02:33:53.262Z,5.29
2018-01-24T02:36:20.829Z,5.29
2018-01-24T02:39:00.842Z,5.29
2018-01-24T02:41:29.846Z,5.29
2018-01-24T02:43:57.383Z,5.31
2018-01-24T02:46:24.922Z,5.32
2018-01-24T02:48:52.854Z,5.35
2018-01-24T02:51:20.402Z,5.37
2018-01-24T02:53:47.955Z,5.40
2018-01-24T02:56:15.510Z,5.40
2018-01-24T02:58:43.080Z,5.42
2018-01-24T03:01:11.126Z,5.43
2018-01-24T03:03:43.552Z,5.46
2018-01-24T03:06:11.119Z,5.48
2018-01-24T03:08:38.982Z,5.47
2018-01-24T03:11:06.537Z,5.48
2018-01-24T03:13:34.079Z,5.50
2018-01-24T03:16:01.625Z,5.51
2018-01-24T03:18:29.176Z,5.51
2018-01-24T03:20:56.745Z,5.52
2018-01-24T03:23:24.281Z,5.53
2018-01-24T03:25:52.822Z,5.55
2018-01-24T03:28:20.388Z,5.57
2018-01-24T03:30:47.944Z,5.59
2018-01-24T03:33:15.500Z,5.59
2018-01-24T03:35:43.033Z,5.60
2018-01-24T03:38:10.586Z,5.63
2018-01-24T03:40:38.107Z,5.66
2018-01-24T03:43:05.882Z,5.67
2018-01-24T03:45:33.433Z,5.69
2018-01-24T03:48:01.297Z,5.73
2018-01-24T03:50:28.862Z,5.75
2018-01-24T03:52:56.373Z,5.78
2018-01-24T03:55:23.887Z,5.78
2018-01-24T03:57:51.438Z,5.79
2018-01-24T04:00:19.306Z,5.81
2018-01-24T04:02:47.195Z,5.84
2018-01-24T04:05:14.734Z,5.85
2018-01-24T04:07:43.118Z,5.88
2018-01-24T04:10:10.686Z,5.90
2018-01-24T04:12:38.276Z,5.93
2018-01-24T04:15:05.835Z,5.96
2018-01-24T04:17:33.389Z,5.98
2018-01-24T04:20:00.932Z,5.99
2018-01-24T04:22:28.474Z,6.00
2018-01-24T04:24:56.287Z,6.06
2018-01-24T04:27:23.832Z,6.07
2018-01-24T04:29:51.442Z,6.08
2018-01-24T04:32:19.242Z,6.09
2018-01-24T04:34:46.774Z,6.12
2018-01-24T04:37:14.341Z,6.15
2018-01-24T04:39:42.978Z,6.19
2018-01-24T04:42:10.543Z,6.22
2018-01-24T04:44:38.101Z,6.25
2018-01-24T04:47:05.898Z,6.29
2018-01-24T04:49:33.429Z,6.33
2018-01-24T04:52:00.965Z,6.36
2018-01-24T04:54:28.858Z,6.39
2018-01-24T04:56:58.090Z,6.41
2018-01-24T04:59:25.943Z,6.41
2018-01-24T05:01:53.489Z,6.43
2018-01-24T05:04:21.061Z,6.46
2018-01-24T05:06:50.478Z,6.47
2018-01-24T05:09:18.021Z,6.49
2018-01-24T05:11:45.577Z,6.50
2018-01-24T05:14:13.115Z,6.52
2018-01-24T05:16:40.662Z,6.53
2018-01-24T05:19:08.578Z,6.53
2018-01-24T05:21:37.942Z,6.54
2018-01-24T05:24:05.477Z,6.55
2018-01-24T05:26:33.047Z,6.57
2018-01-24T05:29:00.601Z,6.58
2018-01-24T05:33:59.790Z,6.60
2018-01-24T05:36:27.341Z,6.60
2018-01-24T05:38:54.906Z,6.58
2018-01-24T05:41:22.452Z,6.57
2018-01-24T05:43:49.990Z,6.55
2018-01-24T05:46:18.293Z,6.55
2018-01-24T05:48:45.865Z,6.54
2018-01-24T05:51:15.113Z,6.55
2018-01-24T05:53:42.648Z,6.54
2018-01-24T05:56:10.194Z,6.53
2018-01-24T05:58:39.485Z,6.53
2018-01-24T06:01:07.050Z,6.53
2018-01-24T06:03:34.585Z,6.53
2018-01-24T06:06:02.168Z,6.53
2018-01-24T06:08:29.711Z,6.52
2018-01-24T06:10:57.263Z,6.53
2018-01-24T06:13:24.830Z,6.53
2018-01-24T06:15:52.801Z,6.55
2018-01-24T06:18:20.357Z,6.56
2018-01-24T06:20:47.927Z,6.58
2018-01-24T06:23:15.483Z,6.58
2018-01-24T06:25:43.047Z,6.60
2018-01-24T06:28:10.748Z,6.64
2018-01-24T06:30:38.519Z,6.65
2018-01-24T06:33:06.107Z,6.65
2018-01-24T06:35:33.636Z,6.66
2018-01-24T06:38:03.282Z,6.66
2018-01-24T06:40:30.900Z,6.65
2018-01-24T06:42:58.447Z,6.66
2018-01-24T06:45:26.256Z,6.68
2018-01-24T06:47:53.822Z,6.69
2018-01-24T06:50:21.328Z,6.71
2018-01-24T06:52:48.896Z,6.71
2018-01-24T06:55:16.716Z,6.72
2018-01-24T06:57:44.638Z,6.72
2018-01-24T07:02:43.863Z,6.72
2018-01-24T07:05:12.174Z,6.70
2018-01-24T07:07:39.739Z,6.71
2018-01-24T07:10:07.501Z,6.73
2018-01-24T07:12:46.806Z,6.75
2018-01-24T07:15:14.344Z,6.78
2018-01-24T07:17:41.862Z,6.81
2018-01-24T07:20:09.542Z,6.85
2018-01-24T07:22:37.068Z,6.90
2018-01-24T07:25:04.642Z,6.91
2018-01-24T07:27:32.171Z,6.95
2018-01-24T07:29:59.692Z,6.98
2018-01-24T07:32:27.226Z,7.03
2018-01-24T07:34:54.787Z,7.10
2018-01-24T07:37:22.345Z,7.20
2018-01-24T07:39:49.902Z,7.27
2018-01-24T07:42:17.422Z,7.36
2018-01-24T07:44:44.961Z,7.41
2018-01-24T07:47:12.494Z,7.46
2018-01-24T07:49:40.025Z,7.53
2018-01-24T07:52:07.549Z,7.59
2018-01-24T07:54:35.086Z,7.64
2018-01-24T07:57:02.627Z,7.67
2018-01-24T07:59:30.140Z,7.73
2018-01-24T08:01:57.687Z,7.77
2018-01-24T08:04:25.246Z,7.82
2018-01-24T08:06:52.755Z,7.85
2018-01-24T08:09:20.309Z,7.87
2018-01-24T08:11:47.869Z,7.91
2018-01-24T08:14:15.412Z,7.96
2018-01-24T08:16:42.946Z,7.97
2018-01-24T08:19:10.490Z,8.01
2018-01-24T08:21:38.038Z,8.05
2018-01-24T08:24:05.581Z,8.08
2018-01-24T08:26:33.155Z,8.12
2018-01-24T08:29:00.678Z,8.10
2018-01-24T08:31:28.214Z,8.05
2018-01-24T08:33:55.744Z,8.06
2018-01-24T08:36:23.285Z,8.07
2018-01-24T08:38:50.855Z,8.12
2018-01-24T08:41:18.384Z,8.13
2018-01-24T08:43:45.903Z,8.16
2018-01-24T08:46:13.461Z,8.19
2018-01-24T08:48:40.999Z,8.21
2018-01-24T08:51:08.546Z,8.24
2018-01-24T08:53:36.089Z,8.25
2018-01-24T08:56:03.660Z,8.29
2018-01-24T08:58:31.221Z,8.31
2018-01-24T09:00:58.925Z,8.34
2018-01-24T09:03:26.449Z,8.41
2018-01-24T09:05:53.970Z,8.46
2018-01-24T09:08:21.514Z,8.52
2018-01-24T09:10:49.201Z,8.57
2018-01-24T09:13:16.750Z,8.65
2018-01-24T09:15:44.278Z,8.74
2018-01-24T09:18:11.845Z,8.82
2018-01-24T09:20:39.387Z,8.88
2018-01-24T09:23:06.928Z,8.98
2018-01-24T09:25:34.697Z,9.10
2018-01-24T09:28:02.252Z,9.17
2018-01-24T09:30:29.799Z,9.20
2018-01-24T09:32:57.347Z,9.20
2018-01-24T09:35:24.890Z,9.24
2018-01-24T09:37:52.429Z,9.25
2018-01-24T09:40:20.017Z,9.32
2018-01-24T09:42:47.553Z,9.47
2018-01-24T09:45:15.129Z,9.57
2018-01-24T09:47:42.674Z,9.67
2018-01-24T09:50:10.205Z,9.67
2018-01-24T09:52:37.750Z,9.75
2018-01-24T09:55:05.277Z,9.85
2018-01-24T09:57:33.495Z,9.86
2018-01-24T10:00:01.046Z,9.91
2018-01-24T10:02:28.605Z,9.88
2018-01-24T10:04:56.144Z,9.91
2018-01-24T10:07:23.718Z,9.93
2018-01-24T10:09:51.297Z,10.00
2018-01-24T10:12:18.826Z,10.03
2018-01-24T10:14:46.369Z,10.13
2018-01-24T10:17:13.956Z,10.20
2018-01-24T10:19:41.478Z,10.34
2018-01-24T10:22:09.020Z,10.38
2018-01-24T10:24:36.546Z,10.38
2018-01-24T10:27:04.095Z,10.42
2018-01-24T10:29:31.645Z,10.46
2018-01-24T10:31:59.559Z,10.50
2018-01-24T10:34:27.083Z,10.51
2018-01-24T10:36:54.634Z,10.53
2018-01-24T10:39:22.150Z,10.54
2018-01-24T10:41:49.675Z,10.59
2018-01-24T10:44:17.217Z,10.60
2018-01-24T10:46:44.765Z,10.64
2018-01-24T10:49:12.295Z,10.62
2018-01-24T10:51:39.913Z,10.58
2018-01-24T10:54:07.449Z,10.57
2018-01-24T10:56:34.990Z,10.60
2018-01-24T10:59:02.569Z,10.65
2018-01-24T11:01:30.097Z,10.66
2018-01-24T11:03:57.641Z,10.68
2018-01-24T11:06:25.191Z,10.63
2018-01-24T11:08:57.749Z,10.59
2018-01-24T11:11:25.302Z,10.55
2018-01-24T11:13:52.859Z,10.55
2018-01-24T11:16:20.386Z,10.57
2018-01-24T11:18:47.945Z,10.76
2018-01-24T11:21:15.469Z,10.86
2018-01-24T11:23:43.031Z,10.89
2018-01-24T11:26:10.580Z,10.95
2018-01-24T11:28:38.094Z,10.97
2018-01-24T11:31:05.622Z,11.00
2018-01-24T11:33:33.170Z,11.02
2018-01-24T11:36:00.712Z,11.06
2018-01-24T11:38:28.245Z,11.12
2018-01-24T11:40:55.801Z,11.00
2018-01-24T11:43:23.366Z,11.00
2018-01-24T11:45:50.900Z,10.85
2018-01-24T11:48:18.442Z,10.89
2018-01-24T11:50:45.988Z,10.88
2018-01-24T11:53:13.510Z,10.76
2018-01-24T11:55:41.222Z,10.69
2018-01-24T11:58:08.770Z,10.68
2018-01-24T12:00:36.327Z,10.67
2018-01-24T12:03:03.942Z,10.63
2018-01-24T12:05:31.473Z,10.70
2018-01-24T12:07:59.017Z,10.68
2018-01-24T12:10:26.582Z,10.66
2018-01-24T12:12:54.111Z,10.68
2018-01-24T12:15:21.782Z,10.68
2018-01-24T12:17:49.346Z,10.71
2018-01-24T12:20:16.882Z,10.68
2018-01-24T12:22:44.449Z,10.69
2018-01-24T12:25:11.991Z,10.74
2018-01-24T12:27:39.558Z,10.87
2018-01-24T12:30:07.083Z,10.97
2018-01-24T12:32:34.621Z,10.99
2018-01-24T12:35:02.188Z,10.93
2018-01-24T12:37:29.723Z,10.93
2018-01-24T12:39:57.239Z,10.93
2018-01-24T12:42:24.809Z,10.92
2018-01-24T12:44:52.358Z,10.91
2018-01-24T12:47:19.888Z,11.00
2018-01-24T12:49:47.446Z,11.03
2018-01-24T12:52:14.992Z,11.00
2018-01-24T12:54:42.533Z,10.96
2018-01-24T12:57:10.099Z,10.87
2018-01-24T12:59:37.623Z,10.86
2018-01-24T13:02:05.146Z,10.79
2018-01-24T13:04:32.676Z,10.79
2018-01-24T13:07:00.351Z,10.80
2018-01-24T13:09:27.897Z,10.80
2018-01-24T13:11:55.433Z,10.83
2018-01-24T13:14:22.999Z,10.78
2018-01-24T13:16:50.541Z,10.75
2018-01-24T13:19:18.085Z,10.78
2018-01-24T13:21:45.636Z,10.78
2018-01-24T13:24:13.150Z,10.80
2018-01-24T13:26:40.704Z,10.86
2018-01-24T13:29:08.252Z,10.87
2018-01-24T13:31:35.766Z,10.83
2018-01-24T13:34:03.325Z,10.83
2018-01-24T13:36:30.883Z,10.85
2018-01-24T13:38:58.428Z,10.84
2018-01-24T13:41:25.950Z,10.86
2018-01-24T13:46:27.466Z,10.88
2018-01-24T13:48:55.007Z,10.85
2018-01-24T13:51:22.549Z,10.87
2018-01-24T13:53:50.101Z,10.85
2018-01-24T13:56:17.652Z,10.87
2018-01-24T13:58:45.194Z,10.84
2018-01-24T14:01:12.754Z,10.80
2018-01-24T14:03:40.290Z,10.81
2018-01-24T14:06:07.816Z,10.76
2018-01-24T14:08:35.383Z,10.76
2018-01-24T14:11:02.927Z,10.72
2018-01-24T14:13:30.466Z,10.70
2018-01-24T14:15:58.021Z,10.70
2018-01-24T14:18:25.542Z,10.65
2018-01-24T14:20:53.063Z,10.67
2018-01-24T14:23:20.605Z,10.65
2018-01-24T14:25:48.126Z,10.65
2018-01-24T14:28:15.686Z,10.65
2018-01-24T14:30:43.414Z,10.64
2018-01-24T14:33:10.949Z,10.62
2018-01-24T14:35:38.474Z,10.62
2018-01-24T14:40:39.777Z,10.62
2018-01-24T14:43:07.341Z,10.61
2018-01-24T14:45:34.878Z,10.63
2018-01-24T14:48:02.421Z,10.65
2018-01-24T14:50:29.974Z,10.65
2018-01-24T14:52:57.517Z,10.59
2018-01-24T14:55:25.054Z,10.55
2018-01-24T14:57:52.618Z,10.50
2018-01-24T15:00:20.139Z,10.46
2018-01-24T15:02:47.663Z,10.43
2018-01-24T15:05:15.207Z,10.38
2018-01-24T15:07:42.742Z,10.34
2018-01-24T15:10:10.258Z,10.31
2018-01-24T15:12:37.809Z,10.31
2018-01-24T15:15:05.322Z,10.30
2018-01-24T15:17:32.867Z,10.26
2018-01-24T15:20:00.392Z,10.22
2018-01-24T15:22:27.925Z,10.18
2018-01-24T15:24:55.518Z,10.14
2018-01-24T15:27:23.030Z,10.09
2018-01-24T15:29:50.578Z,10.05
2018-01-24T15:32:18.338Z,9.98
2018-01-24T15:34:45.926Z,9.92
2018-01-24T15:37:13.457Z,9.87
2018-01-24T15:39:41.036Z,9.83
2018-01-24T15:42:08.559Z,9.78
2018-01-24T15:44:36.102Z,9.74
2018-01-24T15:47:03.657Z,9.73
2018-01-24T15:49:31.170Z,9.71
2018-01-24T15:51:58.705Z,9.69
2018-01-24T15:54:26.264Z,9.67
2018-01-24T15:56:53.803Z,9.65
2018-01-24T15:59:21.338Z,9.62
2018-01-24T16:01:48.875Z,9.58
2018-01-24T16:04:17.127Z,9.52
2018-01-24T16:06:44.659Z,9.50
2018-01-24T16:09:12.166Z,9.50
2018-01-24T16:11:39.683Z,9.50
2018-01-24T16:14:07.202Z,9.55
2018-01-24T16:16:34.707Z,9.53
2018-01-24T16:19:02.238Z,9.50
2018-01-24T16:21:29.798Z,9.49
2018-01-24T16:23:57.307Z,9.51
2018-01-24T16:26:24.847Z,9.52
2018-01-24T16:28:52.394Z,9.53
2018-01-24T16:31:19.918Z,9.53
2018-01-24T16:33:47.480Z,9.49
2018-01-24T16:36:14.989Z,9.45
2018-01-24T16:38:42.509Z,9.47
2018-01-24T16:41:10.065Z,9.52
2018-01-24T16:43:37.602Z,9.53
2018-01-24T16:46:05.150Z,9.53
2018-01-24T16:48:32.717Z,9.53
2018-01-24T16:51:00.235Z,9.54
2018-01-24T16:53:27.778Z,9.56
2018-01-24T16:55:55.323Z,9.54
2018-01-24T16:58:23.046Z,9.52
2018-01-24T17:00:50.568Z,9.55
2018-01-24T17:03:18.102Z,9.54
2018-01-24T17:05:45.653Z,9.54
2018-01-24T17:08:13.194Z,9.53
2018-01-24T17:10:40.726Z,9.49
2018-01-24T17:13:08.263Z,9.48
2018-01-24T17:15:35.795Z,9.50
2018-01-24T17:18:03.359Z,9.49
2018-01-24T17:20:30.869Z,9.45
2018-01-24T17:22:58.503Z,9.46
2018-01-24T17:25:26.076Z,9.51
2018-01-24T17:27:53.623Z,9.50
2018-01-24T17:30:21.140Z,9.44
2018-01-24T17:32:48.648Z,9.42
2018-01-24T17:35:16.215Z,9.38
2018-01-24T17:37:43.751Z,9.37
2018-01-24T17:40:11.319Z,9.36
2018-01-24T17:42:38.832Z,9.39
2018-01-24T17:45:06.349Z,9.39
2018-01-24T17:47:33.874Z,9.43
2018-01-24T17:50:01.389Z,9.40
2018-01-24T17:52:28.932Z,9.37
2018-01-24T17:54:56.462Z,9.32
2018-01-24T17:57:23.977Z,9.27
2018-01-24T17:59:51.482Z,9.25
2018-01-24T18:02:19.032Z,9.25
2018-01-24T18:04:46.529Z,9.26
2018-01-24T18:07:14.049Z,9.26
2018-01-24T18:09:41.567Z,9.22
2018-01-24T18:12:09.107Z,9.17
2018-01-24T18:14:36.860Z,9.15
2018-01-24T18:17:04.385Z,9.16
2018-01-24T18:19:31.916Z,9.16
2018-01-24T18:21:59.424Z,9.18
2018-01-24T18:24:26.959Z,9.17
2018-01-24T18:26:54.494Z,9.13
2018-01-24T18:29:22.203Z,9.14
2018-01-24T18:31:49.697Z,9.15
2018-01-24T18:34:17.334Z,9.14
2018-01-24T18:36:45.008Z,9.14
2018-01-24T18:39:12.504Z,9.14
2018-01-24T18:41:40.123Z,9.12
2018-01-24T18:44:07.860Z,9.10
2018-01-24T18:46:35.377Z,9.10
2018-01-24T18:49:02.981Z,9.07
2018-01-24T18:51:30.536Z,9.04
2018-01-24T18:53:58.046Z,9.05
2018-01-24T18:56:25.550Z,9.02
2018-01-24T18:58:53.127Z,9.06
2018-01-24T19:01:20.666Z,9.14
2018-01-24T19:03:48.232Z,9.21
2018-01-24T19:06:15.732Z,9.29
2018-01-24T19:08:43.261Z,9.34
2018-01-24T19:11:10.774Z,9.38
2018-01-24T19:13:38.366Z,9.42
2018-01-24T19:16:05.896Z,9.44
2018-01-24T19:18:33.412Z,9.45
2018-01-24T19:21:00.939Z,9.44
2018-01-24T19:23:28.720Z,9.44
2018-01-24T19:25:56.233Z,9.42
2018-01-24T19:28:23.796Z,9.44
2018-01-24T19:30:51.384Z,9.48
2018-01-24T19:33:18.902Z,9.49
2018-01-24T19:35:46.462Z,9.51
2018-01-24T19:38:14.014Z,9.49
2018-01-24T19:40:41.618Z,9.48
2018-01-24T19:43:09.117Z,9.50
2018-01-24T19:45:36.634Z,9.51
2018-01-24T19:48:04.164Z,9.52
2018-01-24T19:50:31.776Z,9.50
2018-01-24T19:52:59.273Z,9.50
2018-01-24T19:55:26.777Z,9.49
2018-01-24T19:57:54.265Z,9.51
2018-01-24T20:00:21.995Z,9.52
2018-01-24T20:02:49.532Z,9.56
2018-01-24T20:05:17.053Z,9.57
2018-01-24T20:07:44.581Z,9.58
2018-01-24T20:10:12.079Z,9.58
2018-01-24T20:12:39.705Z,9.56
2018-01-24T20:15:07.247Z,9.55
2018-01-24T20:17:34.806Z,9.56
2018-01-24T20:20:02.493Z,9.58
2018-01-24T20:22:30.003Z,9.58
2018-01-24T20:24:57.528Z,9.57
2018-01-24T20:27:25.101Z,9.61
2018-01-24T20:29:52.602Z,9.61
2018-01-24T20:32:20.164Z,9.62
2018-01-24T20:34:47.656Z,9.60
2018-01-24T20:37:15.173Z,9.60
2018-01-24T20:39:42.960Z,9.60
2018-01-24T20:42:10.481Z,9.59
2018-01-24T20:44:38.005Z,9.59
2018-01-24T20:47:05.545Z,9.58
2018-01-24T20:49:33.059Z,9.61
2018-01-24T20:52:00.599Z,9.62
2018-01-24T20:54:28.117Z,9.60
2018-01-24T20:56:55.652Z,9.60
2018-01-24T20:59:23.230Z,9.59
2018-01-24T21:01:50.736Z,9.61
2018-01-24T21:04:18.345Z,9.58
2018-01-24T21:06:45.890Z,9.57
2018-01-24T21:09:13.413Z,9.57
2018-01-24T21:11:40.937Z,9.58
2018-01-24T21:14:08.477Z,9.58
2018-01-24T21:16:36.018Z,9.59
2018-01-24T21:19:03.805Z,9.59
2018-01-24T21:21:31.318Z,9.58
2018-01-24T21:23:58.808Z,9.60
2018-01-24T21:26:26.340Z,9.59
2018-01-24T21:29:05.597Z,9.58
2018-01-24T21:31:45.021Z,9.59
2018-01-24T21:34:24.295Z,9.61
2018-01-24T21:36:57.890Z,9.63
2018-01-24T21:39:25.394Z,9.63
2018-01-24T21:41:52.903Z,9.63
2018-01-24T21:44:20.435Z,9.64
2018-01-24T21:46:47.945Z,9.62
2018-01-24T21:49:15.484Z,9.62
2018-01-24T21:51:43.017Z,9.64
2018-01-24T21:54:10.527Z,9.65
2018-01-24T21:56:38.044Z,9.64
2018-01-24T21:59:05.578Z,9.64
2018-01-24T22:01:33.172Z,9.61
2018-01-24T22:04:00.718Z,9.59
2018-01-24T22:06:28.233Z,9.59
2018-01-24T22:08:56.674Z,9.60
2018-01-24T22:11:24.199Z,9.58
2018-01-24T22:13:51.774Z,9.59
2018-01-24T22:16:19.334Z,9.58
2018-01-24T22:18:46.853Z,9.57
2018-01-24T22:21:14.361Z,9.57
2018-01-24T22:23:41.900Z,9.57
2018-01-24T22:26:09.415Z,9.56
2018-01-24T22:28:36.956Z,9.57
2018-01-24T22:31:04.478Z,9.57
2018-01-24T22:33:32.009Z,9.57
2018-01-24T22:35:59.536Z,9.57
2018-01-24T22:38:27.168Z,9.56
2018-01-24T22:40:54.668Z,9.55
2018-01-24T22:43:22.189Z,9.54
2018-01-24T22:45:49.746Z,9.50
2018-01-24T22:48:17.274Z,9.47
2018-01-24T22:50:44.792Z,9.47
2018-01-24T22:53:12.330Z,9.44
2018-01-24T22:55:39.852Z,9.44
2018-01-24T22:58:07.359Z,9.45
2018-01-24T23:00:34.866Z,9.48
2018-01-24T23:03:02.392Z,9.44
2018-01-24T23:05:29.937Z,9.43
2018-01-24T23:07:57.436Z,9.39
2018-01-24T23:10:25.237Z,9.39
2018-01-24T23:12:52.760Z,9.36
2018-01-24T23:15:20.719Z,9.35
2018-01-24T23:17:48.326Z,9.35
2018-01-24T23:20:15.831Z,9.36
2018-01-24T23:22:43.369Z,9.36
2018-01-24T23:25:10.911Z,9.38
2018-01-24T23:27:38.444Z,9.37
2018-01-24T23:30:06.024Z,9.37
2018-01-24T23:32:33.585Z,9.36
2018-01-24T23:35:01.103Z,9.34
2018-01-24T23:37:28.801Z,9.30
2018-01-24T23:39:56.625Z,9.29
2018-01-24T23:42:24.148Z,9.26
2018-01-24T23:44:51.764Z,9.25
2018-01-24T23:47:19.285Z,9.23
2018-01-24T23:49:47.010Z,9.18
2018-01-24T23:52:14.512Z,9.18
2018-01-24T23:54:42.117Z,9.17
2018-01-24T23:57:09.688Z,9.13
2018-01-24T23:59:37.185Z,9.12
